Time;durP1;ratioP1;P1;durP2;ratioP2;P2;SDS_P1;SDS_P2;PMS_P1;PMS_P2;Temp;Humidity;BMP_temperature;BMP_pressure;BME280_temperature;BME280_humidity;BME280_pressure;Samples;Min_cycle;Max_cycle;Signal;HPM_P1;HPM_P2
2019/08/29 00:00:08;;;;;;;15.2;9;;;;;;;23.34;65.20313;1002.138;;;;
2019/08/29 00:02:30;;;;;;;10.9;9.2;;;;;;;23.28;65.69043;1002.155;;;;
2019/08/29 00:04:55;;;;;;;11.4;9.6;;;;;;;23.13;66.16309;1002.121;;;;
2019/08/29 00:07:20;;;;;;;13.9;10.1;;;;;;;23.11;66.19434;1002.095;;;;
2019/08/29 00:09:45;;;;;;;13;9.6;;;;;;;23.11;66.51367;1002.113;;;;
2019/08/29 00:12:10;;;;;;;11.3;9.2;;;;;;;23.13;67.25977;1002.099;;;;
2019/08/29 00:14:35;;;;;;;12;9.3;;;;;;;22.95;67.77344;1002.074;;;;
2019/08/29 00:17:00;;;;;;;13;9.4;;;;;;;22.87;68.01953;1002.116;;;;
2019/08/29 00:19:26;;;;;;;11.9;9.3;;;;;;;22.87;68.17285;1002.09;;;;
2019/08/29 00:21:50;;;;;;;13.1;10.1;;;;;;;22.84;68.42871;1002.074;;;;
2019/08/29 00:24:15;;;;;;;12.1;9.5;;;;;;;22.83;68.60156;1002.069;;;;
2019/08/29 00:26:41;;;;;;;11.8;9.9;;;;;;;22.63;69.13867;1002.103;;;;
2019/08/29 00:29:06;;;;;;;11.6;9.6;;;;;;;22.68;69.25;1002.121;;;;
2019/08/29 00:31:31;;;;;;;16.2;10.4;;;;;;;22.49;70.03223;1002.092;;;;
2019/08/29 00:33:56;;;;;;;13.6;10.5;;;;;;;22.34;70.51563;1002.077;;;;
2019/08/29 00:36:22;;;;;;;14.7;10.1;;;;;;;22.33;70.66504;1002.034;;;;
2019/08/29 00:38:46;;;;;;;12.5;9.9;;;;;;;22.22;71.22559;1002.078;;;;
2019/08/29 00:41:11;;;;;;;11.1;9.9;;;;;;;22.11;71.38281;1002.083;;;;
2019/08/29 00:43:36;;;;;;;12.1;9.8;;;;;;;22.18;70.75977;1002.021;;;;
2019/08/29 00:46:02;;;;;;;11.9;9.8;;;;;;;22.23;70.7793;1002.019;;;;
2019/08/29 00:48:27;;;;;;;13.8;10.4;;;;;;;22.27;71.02148;1002.021;;;;
2019/08/29 00:50:52;;;;;;;11.6;9.9;;;;;;;22.39;70.85156;1002.058;;;;
2019/08/29 00:53:17;;;;;;;12.6;10.3;;;;;;;22.36;70.91797;1002.088;;;;
2019/08/29 00:55:42;;;;;;;11.5;9.5;;;;;;;22.37;71.01465;1002.157;;;;
2019/08/29 00:58:07;;;;;;;13.8;10.3;;;;;;;22.39;70.87695;1002.182;;;;
2019/08/29 01:00:33;;;;;;;13.3;10.4;;;;;;;22.27;71.1875;1002.212;;;;
2019/08/29 01:02:58;;;;;;;12.1;9.9;;;;;;;21.99;72.38672;1002.228;;;;
2019/08/29 01:05:23;;;;;;;12.2;10.4;;;;;;;21.97;72.52441;1002.215;;;;
2019/08/29 01:07:48;;;;;;;13.5;10.2;;;;;;;21.99;72.57324;1002.219;;;;
2019/08/29 01:10:13;;;;;;;14.7;11.6;;;;;;;21.97;72.25488;1002.182;;;;
2019/08/29 01:12:38;;;;;;;14.9;11.1;;;;;;;21.9;72.85254;1002.183;;;;
2019/08/29 01:15:16;;;;;;;14.1;10.5;;;;;;;21.84;73.29004;1002.199;;;;
2019/08/29 01:17:29;;;;;;;13.7;10.8;;;;;;;21.84;72.86719;1002.201;;;;
2019/08/29 01:19:54;;;;;;;14;10.6;;;;;;;22.08;71.34375;1002.191;;;;
2019/08/29 01:22:19;;;;;;;13.3;10.6;;;;;;;22.18;70.51172;1002.236;;;;
2019/08/29 01:24:44;;;;;;;15.2;9.8;;;;;;;22.3;69.64941;1002.148;;;;
2019/08/29 01:27:09;;;;;;;12.8;10.4;;;;;;;22.52;68.57813;1002.077;;;;
2019/08/29 01:29:34;;;;;;;12.7;10.3;;;;;;;22.5;68.49414;1002.078;;;;
2019/08/29 01:31:59;;;;;;;13.5;9.9;;;;;;;22.44;68.76563;1002.125;;;;
2019/08/29 01:34:25;;;;;;;12.5;10;;;;;;;22.56;68.33789;1002.143;;;;
2019/08/29 01:36:50;;;;;;;13.7;9.9;;;;;;;22.54;68.25293;1002.154;;;;
2019/08/29 01:39:15;;;;;;;11.5;9.5;;;;;;;22.5;68.09375;1002.207;;;;
2019/08/29 01:41:40;;;;;;;14.6;9.5;;;;;;;22.51;67.84863;1002.184;;;;
2019/08/29 01:44:05;;;;;;;12.9;9.9;;;;;;;22.55;67.54688;1002.149;;;;
2019/08/29 01:46:30;;;;;;;12;9.7;;;;;;;22.48;67.60742;1002.128;;;;
2019/08/29 01:48:55;;;;;;;13.1;9.5;;;;;;;22.43;67.62402;1002.105;;;;
2019/08/29 01:51:20;;;;;;;13.8;9.6;;;;;;;22.43;67.56543;1002.068;;;;
2019/08/29 01:53:45;;;;;;;11.8;9.2;;;;;;;22.4;67.65527;1002.044;;;;
2019/08/29 01:56:10;;;;;;;12.6;9.3;;;;;;;22.38;67.76855;1002.068;;;;
2019/08/29 01:58:36;;;;;;;12.7;9.6;;;;;;;22.27;68.22266;1002.086;;;;
2019/08/29 02:01:01;;;;;;;11.7;9.6;;;;;;;22.17;68.53711;1002.126;;;;
2019/08/29 02:03:26;;;;;;;13.2;10.4;;;;;;;22.21;68.4375;1002.136;;;;
2019/08/29 02:05:51;;;;;;;11.1;9.8;;;;;;;22.2;68.61133;1002.14;;;;
2019/08/29 02:08:16;;;;;;;13.7;9.8;;;;;;;22.22;68.61523;1002.171;;;;
2019/08/29 02:10:41;;;;;;;11.9;10.1;;;;;;;22.1;69.23047;1002.251;;;;
2019/08/29 02:13:06;;;;;;;11.6;9.6;;;;;;;22.29;68.31934;1002.176;;;;
2019/08/29 02:15:31;;;;;;;11.4;9.2;;;;;;;22.18;68.65527;1002.222;;;;
2019/08/29 02:17:56;;;;;;;12.6;9.7;;;;;;;22.01;69.34473;1002.117;;;;
2019/08/29 02:20:21;;;;;;;12.9;9.9;;;;;;;21.96;69.58594;1002.203;;;;
2019/08/29 02:22:47;;;;;;;11;9.5;;;;;;;22.02;69.3125;1002.2;;;;
2019/08/29 02:25:12;;;;;;;14.2;10.4;;;;;;;21.95;69.55957;1002.221;;;;
2019/08/29 02:27:37;;;;;;;12.5;10;;;;;;;22.15;68.7334;1002.258;;;;
2019/08/29 02:30:02;;;;;;;12.4;9.7;;;;;;;22.2;68.43457;1002.315;;;;
2019/08/29 02:32:27;;;;;;;13.3;10;;;;;;;22.23;68.33301;1002.289;;;;
2019/08/29 02:34:52;;;;;;;11.9;9.8;;;;;;;22.35;67.96484;1002.294;;;;
2019/08/29 02:37:18;;;;;;;12.1;10.1;;;;;;;22.29;68.07227;1002.31;;;;
2019/08/29 02:39:43;;;;;;;13;10;;;;;;;22.24;68.28906;1002.326;;;;
2019/08/29 02:42:08;;;;;;;13;10.2;;;;;;;22.28;68.2002;1002.385;;;;
2019/08/29 02:44:33;;;;;;;12.3;10.1;;;;;;;22.37;68.00391;1002.367;;;;
2019/08/29 02:46:58;;;;;;;13.1;9.8;;;;;;;22.33;68.17383;1002.441;;;;
2019/08/29 02:49:23;;;;;;;13.5;10.8;;;;;;;21.98;69.89453;1002.399;;;;
2019/08/29 02:51:48;;;;;;;14.9;10.8;;;;;;;22.17;69.58301;1002.403;;;;
2019/08/29 02:54:14;;;;;;;13.5;11.1;;;;;;;22.04;70.83105;1002.405;;;;
2019/08/29 02:56:39;;;;;;;13.7;11.5;;;;;;;22.22;70.42578;1002.445;;;;
2019/08/29 02:59:04;;;;;;;17;11;;;;;;;22.27;70.17578;1002.455;;;;
2019/08/29 03:01:29;;;;;;;14.9;10.7;;;;;;;22.27;70.31543;1002.521;;;;
2019/08/29 03:03:54;;;;;;;16.1;11;;;;;;;22.34;70.2334;1002.522;;;;
2019/08/29 03:06:19;;;;;;;15.4;11.9;;;;;;;22.35;70.59863;1002.501;;;;
2019/08/29 03:08:44;;;;;;;16.1;12;;;;;;;22.32;70.7832;1002.532;;;;
2019/08/29 03:11:09;;;;;;;13.9;11.8;;;;;;;22.37;70.81543;1002.514;;;;
2019/08/29 03:13:34;;;;;;;13.8;11.3;;;;;;;22.3;71.4375;1002.5;;;;
2019/08/29 03:15:59;;;;;;;16.6;11.9;;;;;;;22.28;71.72852;1002.528;;;;
2019/08/29 03:18:24;;;;;;;19.1;12.7;;;;;;;22.22;72.30566;1002.557;;;;
2019/08/29 03:20:49;;;;;;;14.6;11.4;;;;;;;22.29;72.11816;1002.561;;;;
2019/08/29 03:23:14;;;;;;;15.9;12.2;;;;;;;22.23;72.33105;1002.571;;;;
2019/08/29 03:25:40;;;;;;;16.2;12;;;;;;;22.29;71.74121;1002.596;;;;
2019/08/29 03:28:05;;;;;;;14.7;11.5;;;;;;;22.21;71.94043;1002.606;;;;
2019/08/29 03:30:30;;;;;;;15.7;12;;;;;;;22.13;72.4209;1002.663;;;;
2019/08/29 03:32:55;;;;;;;16;12.2;;;;;;;22.13;72.59668;1002.633;;;;
2019/08/29 03:35:20;;;;;;;16.4;12.1;;;;;;;22.16;72.59082;1002.707;;;;
2019/08/29 03:37:45;;;;;;;18;12.1;;;;;;;22.13;72.70313;1002.7;;;;
2019/08/29 03:40:11;;;;;;;15.3;11.9;;;;;;;22.09;72.7793;1002.683;;;;
2019/08/29 03:42:36;;;;;;;19.7;12.9;;;;;;;21.96;73.37988;1002.734;;;;
2019/08/29 03:45:01;;;;;;;17;12.4;;;;;;;21.93;73.61035;1002.727;;;;
2019/08/29 03:47:26;;;;;;;15.9;12.1;;;;;;;21.93;73.75098;1002.759;;;;
2019/08/29 03:49:52;;;;;;;16.6;13;;;;;;;22;73.46973;1002.803;;;;
2019/08/29 03:52:17;;;;;;;18.2;12.4;;;;;;;22.11;73.16992;1002.813;;;;
2019/08/29 03:54:42;;;;;;;18;12.9;;;;;;;21.98;74.0293;1002.825;;;;
2019/08/29 03:57:07;;;;;;;17.1;13.4;;;;;;;22.02;74.14258;1002.805;;;;
2019/08/29 03:59:32;;;;;;;18;13;;;;;;;22.08;74.24707;1002.811;;;;
2019/08/29 04:02:33;;;;;;;16.9;13.1;;;;;;;21.99;74.72559;1002.819;;;;
2019/08/29 04:04:58;;;;;;;18.3;12.8;;;;;;;22.13;74.47754;1002.818;;;;
2019/08/29 04:07:23;;;;;;;17.7;13.3;;;;;;;22.01;75.0459;1002.824;;;;
2019/08/29 04:09:48;;;;;;;16.5;12.6;;;;;;;22.06;74.97266;1002.789;;;;
2019/08/29 04:12:13;;;;;;;16.6;13.3;;;;;;;21.99;75.44238;1002.794;;;;
2019/08/29 04:14:39;;;;;;;20.1;13.5;;;;;;;22.07;75.26758;1002.816;;;;
2019/08/29 04:17:04;;;;;;;17.8;14.1;;;;;;;22.07;75.43262;1002.879;;;;
2019/08/29 04:19:29;;;;;;;17.3;13.6;;;;;;;21.97;75.81543;1002.903;;;;
2019/08/29 04:21:54;;;;;;;19.4;13.7;;;;;;;21.88;76.15234;1002.845;;;;
2019/08/29 04:24:19;;;;;;;18.5;14;;;;;;;21.9;76.20215;1002.865;;;;
2019/08/29 04:26:44;;;;;;;21.4;13.3;;;;;;;21.9;76.17871;1002.903;;;;
2019/08/29 04:29:09;;;;;;;17.4;13.5;;;;;;;22.03;75.51758;1002.921;;;;
2019/08/29 04:31:34;;;;;;;20.3;13.8;;;;;;;21.96;75.75488;1002.979;;;;
2019/08/29 04:33:59;;;;;;;18;12.9;;;;;;;21.95;75.54004;1003.011;;;;
2019/08/29 04:36:24;;;;;;;17.6;12.7;;;;;;;22.06;74.70215;1003.023;;;;
2019/08/29 04:38:50;;;;;;;17;12.5;;;;;;;22.12;74.05273;1003.091;;;;
2019/08/29 04:41:15;;;;;;;17.9;12.4;;;;;;;22.15;73.6582;1003.072;;;;
2019/08/29 04:43:40;;;;;;;17.2;12.8;;;;;;;22.26;72.94629;1003.105;;;;
2019/08/29 04:46:05;;;;;;;16.3;11.5;;;;;;;22.24;72.75684;1003.083;;;;
2019/08/29 04:48:30;;;;;;;16.6;12.3;;;;;;;22.27;72.52734;1003.091;;;;
2019/08/29 04:50:55;;;;;;;14.3;11.4;;;;;;;22.39;71.81445;1003.122;;;;
2019/08/29 04:53:20;;;;;;;16;11.7;;;;;;;22.45;71.40332;1003.201;;;;
2019/08/29 04:55:46;;;;;;;13.9;11.3;;;;;;;22.54;70.94727;1003.188;;;;
2019/08/29 04:58:11;;;;;;;15.9;11;;;;;;;22.58;70.7168;1003.241;;;;
2019/08/29 05:00:36;;;;;;;15.1;11.6;;;;;;;22.65;70.11719;1003.223;;;;
2019/08/29 05:03:01;;;;;;;14.1;11.2;;;;;;;22.71;69.57324;1003.235;;;;
2019/08/29 05:05:26;;;;;;;14.3;10.8;;;;;;;22.81;68.97852;1003.239;;;;
2019/08/29 05:07:51;;;;;;;14.5;11.4;;;;;;;22.81;68.87109;1003.248;;;;
2019/08/29 05:10:16;;;;;;;12.9;10.7;;;;;;;22.99;68.22754;1003.244;;;;
2019/08/29 05:12:41;;;;;;;16.8;10.9;;;;;;;22.9;68.27246;1003.325;;;;
2019/08/29 05:15:07;;;;;;;18;11.1;;;;;;;22.89;68.38867;1003.324;;;;
2019/08/29 05:17:32;;;;;;;15;11.5;;;;;;;22.94;68.16113;1003.35;;;;
2019/08/29 05:19:57;;;;;;;13.5;10.5;;;;;;;23.06;67.96582;1003.394;;;;
2019/08/29 05:22:22;;;;;;;16.3;10.9;;;;;;;23.08;67.81543;1003.395;;;;
2019/08/29 05:24:47;;;;;;;15.1;11.1;;;;;;;23.19;67.58594;1003.453;;;;
2019/08/29 05:27:12;;;;;;;15.8;11.1;;;;;;;23.18;67.58496;1003.478;;;;
2019/08/29 05:29:37;;;;;;;16.1;11;;;;;;;23.26;67.24316;1003.488;;;;
2019/08/29 05:32:02;;;;;;;14;10.8;;;;;;;23.35;66.8916;1003.534;;;;
2019/08/29 05:34:27;;;;;;;13.8;10.2;;;;;;;23.27;67.17285;1003.575;;;;
2019/08/29 05:36:53;;;;;;;15;10.8;;;;;;;23.24;67.23926;1003.641;;;;
2019/08/29 05:39:18;;;;;;;14.2;11;;;;;;;23.3;67.03711;1003.665;;;;
2019/08/29 05:41:43;;;;;;;15;10.7;;;;;;;23.33;67.04199;1003.686;;;;
2019/08/29 05:44:08;;;;;;;13.2;10.8;;;;;;;23.46;66.73145;1003.668;;;;
2019/08/29 05:46:33;;;;;;;14.9;10.8;;;;;;;23.34;66.98438;1003.669;;;;
2019/08/29 05:48:58;;;;;;;15.9;10.8;;;;;;;23.33;67.125;1003.697;;;;
2019/08/29 05:51:23;;;;;;;16.1;11.4;;;;;;;23.72;65.97949;1003.757;;;;
2019/08/29 05:53:48;;;;;;;15.1;11;;;;;;;23.49;66.87695;1003.783;;;;
2019/08/29 05:56:14;;;;;;;14.4;10.6;;;;;;;23.54;66.82617;1003.803;;;;
2019/08/29 05:58:39;;;;;;;13.9;11;;;;;;;23.77;66.13965;1003.841;;;;
2019/08/29 06:01:04;;;;;;;15.1;11.6;;;;;;;23.85;65.97656;1003.797;;;;
2019/08/29 06:03:29;;;;;;;16.2;11.5;;;;;;;23.82;66.12402;1003.85;;;;
2019/08/29 06:05:54;;;;;;;13.9;11;;;;;;;23.85;66.12988;1003.88;;;;
2019/08/29 06:08:19;;;;;;;15.4;10.6;;;;;;;24.15;65.05176;1003.845;;;;
2019/08/29 06:10:44;;;;;;;16.1;10.8;;;;;;;24.37;64.56348;1003.817;;;;
2019/08/29 06:13:09;;;;;;;18.1;11.5;;;;;;;24.5;63.9082;1003.85;;;;
2019/08/29 06:15:34;;;;;;;15.1;11.2;;;;;;;24.61;63.42871;1003.84;;;;
2019/08/29 06:17:59;;;;;;;14.4;10.8;;;;;;;24.68;63.30859;1003.864;;;;
2019/08/29 06:20:26;;;;;;;14.9;10.8;;;;;;;25.32;61.23145;1003.942;;;;
2019/08/29 06:22:51;;;;;;;13.9;11;;;;;;;25.41;60.94922;1003.935;;;;
2019/08/29 06:25:16;;;;;;;16.1;10.7;;;;;;;24.77;62.84863;1003.865;;;;
2019/08/29 06:27:41;;;;;;;15.1;10.3;;;;;;;25.1;62.05371;1003.847;;;;
2019/08/29 06:30:06;;;;;;;15.8;11;;;;;;;24.91;62.50195;1003.885;;;;
2019/08/29 06:32:31;;;;;;;15.6;10.9;;;;;;;25.37;61.35742;1003.887;;;;
2019/08/29 06:34:56;;;;;;;16.2;11.1;;;;;;;25.27;61.34375;1003.945;;;;
2019/08/29 06:37:21;;;;;;;17.7;10.5;;;;;;;26.37;58.44434;1003.957;;;;
2019/08/29 06:39:47;;;;;;;16.3;11;;;;;;;25.77;59.83594;1003.958;;;;
2019/08/29 06:42:11;;;;;;;15.8;10;;;;;;;26.56;57.36621;1003.963;;;;
2019/08/29 06:44:37;;;;;;;15.6;10.2;;;;;;;26.87;56.4668;1003.983;;;;
2019/08/29 06:47:02;;;;;;;13.8;10.2;;;;;;;27.39;54.68848;1003.985;;;;
2019/08/29 06:49:27;;;;;;;14.6;10.6;;;;;;;27.01;55.43848;1004.05;;;;
2019/08/29 06:51:52;;;;;;;13.9;10.2;;;;;;;28.63;51.29688;1004.013;;;;
2019/08/29 06:54:17;;;;;;;12.6;9.8;;;;;;;28.32;51.73926;1004.126;;;;
2019/08/29 06:56:42;;;;;;;12.2;9.5;;;;;;;27.26;54.14941;1004.139;;;;
2019/08/29 06:59:08;;;;;;;14.6;9.6;;;;;;;28.07;52.26953;1004.172;;;;
2019/08/29 07:01:33;;;;;;;13.5;10.4;;;;;;;27.54;53.24316;1004.134;;;;
2019/08/29 07:03:58;;;;;;;14.5;10.1;;;;;;;28.6;50.2793;1004.249;;;;
2019/08/29 07:06:23;;;;;;;12.4;9.5;;;;;;;29.95;47.09375;1004.207;;;;
2019/08/29 07:08:48;;;;;;;14.1;9.1;;;;;;;30.06;46.57715;1004.178;;;;
2019/08/29 07:11:14;;;;;;;17;9.7;;;;;;;30.4;45.66699;1004.216;;;;
2019/08/29 07:13:39;;;;;;;12.8;9.8;;;;;;;30.75;44.93555;1004.217;;;;
2019/08/29 07:16:04;;;;;;;12.3;9.3;;;;;;;29.62;47.20215;1004.241;;;;
2019/08/29 07:18:29;;;;;;;13.7;9.4;;;;;;;28.52;50.0918;1004.299;;;;
2019/08/29 07:20:54;;;;;;;13.2;9.5;;;;;;;28.14;51.26563;1004.332;;;;
2019/08/29 07:23:20;;;;;;;14.2;10.2;;;;;;;27.99;51.86719;1004.424;;;;
2019/08/29 07:25:45;;;;;;;16.5;8.9;;;;;;;29.31;48.49512;1004.393;;;;
2019/08/29 07:28:10;;;;;;;13.3;9.9;;;;;;;29.66;47.44629;1004.479;;;;
2019/08/29 07:30:36;;;;;;;11.7;8.9;;;;;;;30.26;45.98828;1004.5;;;;
2019/08/29 07:33:01;;;;;;;15.3;9.2;;;;;;;29.75;47.25098;1004.5;;;;
2019/08/29 07:35:28;;;;;;;13;9.4;;;;;;;28.76;49.2832;1004.583;;;;
2019/08/29 07:37:51;;;;;;;13.8;9.5;;;;;;;28.47;49.90723;1004.607;;;;
2019/08/29 07:40:16;;;;;;;12.7;9;;;;;;;29.75;47.20313;1004.608;;;;
2019/08/29 07:42:42;;;;;;;10.7;9;;;;;;;31.35;43.26758;1004.625;;;;
2019/08/29 07:45:07;;;;;;;13.3;9.3;;;;;;;32.19;41.65234;1004.645;;;;
2019/08/29 07:47:32;;;;;;;13.1;8.5;;;;;;;33.1;39.65234;1004.629;;;;
2019/08/29 07:49:57;;;;;;;11.7;8.5;;;;;;;33.11;39.60449;1004.669;;;;
2019/08/29 07:52:22;;;;;;;11.2;8.9;;;;;;;33.07;39.30078;1004.664;;;;
2019/08/29 07:54:47;;;;;;;13.2;8.8;;;;;;;33.12;39.59375;1004.665;;;;
2019/08/29 07:57:13;;;;;;;10.4;8.6;;;;;;;33.45;38.52539;1004.685;;;;
2019/08/29 07:59:38;;;;;;;10.3;8.6;;;;;;;33.92;37.58887;1004.665;;;;
2019/08/29 08:02:03;;;;;;;12.7;8;;;;;;;34.32;36.35254;1004.665;;;;
2019/08/29 08:04:28;;;;;;;11;8.5;;;;;;;34.17;36.58203;1004.704;;;;
2019/08/29 08:06:53;;;;;;;10.3;7.9;;;;;;;34.84;34.73828;1004.735;;;;
2019/08/29 08:09:18;;;;;;;9.3;7.8;;;;;;;33.26;37.00391;1004.798;;;;
2019/08/29 08:11:43;;;;;;;11;8.2;;;;;;;33.47;36.46582;1004.763;;;;
2019/08/29 08:14:08;;;;;;;11.8;7.8;;;;;;;33.17;37.15234;1004.833;;;;
2019/08/29 08:16:34;;;;;;;8.8;7.5;;;;;;;32.75;37.94922;1004.826;;;;
2019/08/29 08:18:59;;;;;;;11.4;7.6;;;;;;;33.17;37.10449;1004.846;;;;
2019/08/29 08:21:24;;;;;;;12.3;7.8;;;;;;;32.85;37.78906;1004.835;;;;
2019/08/29 08:23:49;;;;;;;9.5;8.1;;;;;;;34.01;35.42285;1004.757;;;;
2019/08/29 08:26:14;;;;;;;9.7;7.9;;;;;;;33.86;35.56738;1004.789;;;;
2019/08/29 08:28:39;;;;;;;8.7;7.6;;;;;;;33.16;36.24805;1004.795;;;;
2019/08/29 08:31:04;;;;;;;10.4;7.8;;;;;;;32.84;37.29492;1004.812;;;;
2019/08/29 08:33:29;;;;;;;9.9;7.4;;;;;;;33.49;36.25098;1004.804;;;;
2019/08/29 08:35:54;;;;;;;10.2;7.6;;;;;;;33.52;35.62598;1004.772;;;;
2019/08/29 08:38:20;;;;;;;9.6;7.7;;;;;;;33.61;35.34375;1004.742;;;;
2019/08/29 08:40:45;;;;;;;10.8;8.1;;;;;;;33.6;35.81348;1004.794;;;;
2019/08/29 08:43:10;;;;;;;11.2;7.6;;;;;;;34.67;34.07227;1004.813;;;;
2019/08/29 08:45:35;;;;;;;9.3;7.5;;;;;;;34.27;34.48926;1004.786;;;;
2019/08/29 08:48:00;;;;;;;9.6;7.6;;;;;;;35.38;32.5752;1004.76;;;;
2019/08/29 08:50:25;;;;;;;10.2;7.6;;;;;;;35.14;33.11523;1004.854;;;;
2019/08/29 08:52:50;;;;;;;9.1;7.4;;;;;;;34.91;33.36426;1004.868;;;;
2019/08/29 08:55:15;;;;;;;9.3;7.8;;;;;;;34.48;34.14258;1004.88;;;;
2019/08/29 08:57:41;;;;;;;11.7;7.4;;;;;;;34.76;33.78809;1004.89;;;;
2019/08/29 09:00:06;;;;;;;13.9;8.1;;;;;;;35.07;33.4248;1004.907;;;;
2019/08/29 09:02:31;;;;;;;10.9;7.6;;;;;;;34.59;34.00586;1004.894;;;;
2019/08/29 09:04:56;;;;;;;9;7.6;;;;;;;34.91;33.20703;1004.939;;;;
2019/08/29 09:07:21;;;;;;;10.1;7.3;;;;;;;34.57;33.81055;1004.926;;;;
2019/08/29 09:09:46;;;;;;;11.4;7.6;;;;;;;33.87;35.2793;1004.896;;;;
2019/08/29 09:12:11;;;;;;;9.5;7.6;;;;;;;34.44;34.16406;1004.897;;;;
2019/08/29 09:14:36;;;;;;;9.1;7.3;;;;;;;34.16;33.92578;1004.875;;;;
2019/08/29 09:17:01;;;;;;;8.5;7.6;;;;;;;33.93;34.82617;1004.859;;;;
2019/08/29 09:19:26;;;;;;;8.5;7.3;;;;;;;34.96;33.24707;1004.95;;;;
2019/08/29 09:21:51;;;;;;;10.8;7.6;;;;;;;35.16;32.74121;1004.896;;;;
2019/08/29 09:24:17;;;;;;;11;7.7;;;;;;;34.92;32.99023;1004.903;;;;
2019/08/29 09:26:42;;;;;;;9.7;7.3;;;;;;;35.26;32.31348;1004.93;;;;
2019/08/29 09:29:07;;;;;;;11.2;7;;;;;;;34.71;32.85449;1004.939;;;;
2019/08/29 09:31:32;;;;;;;8.9;7.4;;;;;;;34.85;32.58594;1004.902;;;;
2019/08/29 09:33:58;;;;;;;8;7.2;;;;;;;35.9;30.98828;1004.91;;;;
2019/08/29 09:36:22;;;;;;;10.2;7.4;;;;;;;36.45;29.90918;1004.863;;;;
2019/08/29 09:38:47;;;;;;;9.6;7.1;;;;;;;36.25;30.38184;1004.873;;;;
2019/08/29 09:41:12;;;;;;;10.1;7.2;;;;;;;35.81;31.22559;1004.849;;;;
2019/08/29 09:43:37;;;;;;;8.7;6.6;;;;;;;35.07;31.93555;1004.873;;;;
2019/08/29 09:46:03;;;;;;;9.1;7.2;;;;;;;34.4;33.19434;1004.891;;;;
2019/08/29 09:48:30;;;;;;;8.2;7;;;;;;;35.12;32.35059;1004.92;;;;
2019/08/29 09:50:53;;;;;;;7.8;7;;;;;;;35.08;32.62695;1004.902;;;;
2019/08/29 09:53:18;;;;;;;8.2;6.9;;;;;;;35.93;30.91797;1004.875;;;;
2019/08/29 09:55:43;;;;;;;10;6.9;;;;;;;35.58;31.64551;1004.881;;;;
2019/08/29 09:58:09;;;;;;;10.9;7.3;;;;;;;35.82;31.12891;1004.873;;;;
2019/08/29 10:00:33;;;;;;;11;7.5;;;;;;;36.3;30.53125;1004.861;;;;
2019/08/29 10:02:58;;;;;;;9.2;7.3;;;;;;;37.01;29.57031;1004.874;;;;
2019/08/29 10:05:23;;;;;;;9.1;7.5;;;;;;;36.46;30.55273;1004.86;;;;
2019/08/29 10:07:49;;;;;;;7.6;6.9;;;;;;;36.56;30.59668;1004.847;;;;
2019/08/29 10:10:14;;;;;;;10;6.9;;;;;;;36.39;30.22168;1004.835;;;;
2019/08/29 10:12:39;;;;;;;8;6.9;;;;;;;36.34;30.19336;1004.803;;;;
2019/08/29 10:15:04;;;;;;;7.8;6.9;;;;;;;36.42;30.35645;1004.792;;;;
2019/08/29 10:17:29;;;;;;;9.8;7.6;;;;;;;35.1;31.97461;1004.815;;;;
2019/08/29 10:19:54;;;;;;;10.4;7.2;;;;;;;35.23;32.12891;1004.772;;;;
2019/08/29 10:22:19;;;;;;;8.8;6.5;;;;;;;35.9;31.24414;1004.803;;;;
2019/08/29 10:24:44;;;;;;;9.5;7.1;;;;;;;35.39;32.18945;1004.797;;;;
2019/08/29 10:27:10;;;;;;;7.4;6.7;;;;;;;35.55;31.80078;1004.797;;;;
2019/08/29 10:29:35;;;;;;;9.2;7.1;;;;;;;35.6;31.98535;1004.812;;;;
2019/08/29 10:32:00;;;;;;;11.3;7.3;;;;;;;35.56;31.9707;1004.847;;;;
2019/08/29 10:34:25;;;;;;;8.7;6.8;;;;;;;35.67;31.88184;1004.851;;;;
2019/08/29 10:36:50;;;;;;;9.6;7.3;;;;;;;35.95;31.50098;1004.852;;;;
2019/08/29 10:39:15;;;;;;;10.7;7.4;;;;;;;35.44;32.51953;1004.862;;;;
2019/08/29 10:41:40;;;;;;;8.8;7.4;;;;;;;35.66;32.35352;1004.803;;;;
2019/08/29 10:44:05;;;;;;;9.6;7.4;;;;;;;34.81;33.56152;1004.842;;;;
2019/08/29 10:46:30;;;;;;;8.6;7.2;;;;;;;34.59;33.77637;1004.739;;;;
2019/08/29 10:48:55;;;;;;;9.6;7.1;;;;;;;34.65;33.8291;1004.773;;;;
2019/08/29 10:51:20;;;;;;;8.4;7.1;;;;;;;34.38;34.34082;1004.745;;;;
2019/08/29 10:53:46;;;;;;;9;7;;;;;;;33.97;34.78027;1004.754;;;;
2019/08/29 10:56:11;;;;;;;10.2;7.5;;;;;;;33.52;35.75879;1004.813;;;;
2019/08/29 10:58:36;;;;;;;11;7.1;;;;;;;32.84;36.1748;1004.791;;;;
2019/08/29 11:01:03;;;;;;;12;7.4;;;;;;;32.99;36.37988;1004.778;;;;
2019/08/29 11:03:26;;;;;;;9.4;7;;;;;;;32.92;36.73535;1004.732;;;;
2019/08/29 11:05:51;;;;;;;9.1;7.3;;;;;;;32.84;37.20996;1004.76;;;;
2019/08/29 11:08:16;;;;;;;8.3;7.2;;;;;;;32.66;36.8584;1004.724;;;;
2019/08/29 11:10:41;;;;;;;10.2;7.6;;;;;;;33.03;36.59961;1004.716;;;;
2019/08/29 11:13:08;;;;;;;22.8;8.8;;;;;;;32.94;36.7959;1004.746;;;;
2019/08/29 11:15:32;;;;;;;10.6;7.1;;;;;;;32.64;36.21973;1004.79;;;;
2019/08/29 11:17:57;;;;;;;8.4;6.4;;;;;;;33.04;35.1543;1004.763;;;;
2019/08/29 11:20:22;;;;;;;9.1;6.7;;;;;;;32.23;36.69141;1004.778;;;;
2019/08/29 11:22:47;;;;;;;8.1;6.7;;;;;;;32.75;36.34766;1004.77;;;;
2019/08/29 11:25:12;;;;;;;9.2;7.5;;;;;;;32.95;36.43652;1004.722;;;;
2019/08/29 11:27:37;;;;;;;9.9;7;;;;;;;33.14;35.51172;1004.752;;;;
2019/08/29 11:30:02;;;;;;;9.5;7;;;;;;;32.79;36.11133;1004.781;;;;
2019/08/29 11:32:27;;;;;;;8.2;7.2;;;;;;;32.56;36.92188;1004.737;;;;
2019/08/29 11:34:53;;;;;;;9.5;7.4;;;;;;;32.3;37.86328;1004.721;;;;
2019/08/29 11:37:18;;;;;;;9.6;7.4;;;;;;;32.61;37.21484;1004.755;;;;
2019/08/29 11:39:43;;;;;;;10.1;6.8;;;;;;;33.12;35.70313;1004.642;;;;
2019/08/29 11:42:08;;;;;;;10.2;7.4;;;;;;;32.84;36.7168;1004.705;;;;
2019/08/29 11:44:33;;;;;;;10.3;7.5;;;;;;;33.01;36.01953;1004.685;;;;
2019/08/29 11:46:58;;;;;;;11.5;7.4;;;;;;;33.19;36.16602;1004.66;;;;
2019/08/29 11:49:24;;;;;;;10.5;7.2;;;;;;;32.58;36.23828;1004.623;;;;
2019/08/29 11:51:49;;;;;;;8.1;7;;;;;;;33.31;35.32031;1004.663;;;;
2019/08/29 11:54:14;;;;;;;8.2;7.3;;;;;;;33.36;35.62598;1004.581;;;;
2019/08/29 11:56:39;;;;;;;8.8;6.8;;;;;;;33.37;35.26465;1004.59;;;;
2019/08/29 11:59:04;;;;;;;9;6.9;;;;;;;33.04;35.05762;1004.56;;;;
2019/08/29 12:01:29;;;;;;;7;6.3;;;;;;;32.77;35.07422;1004.545;;;;
2019/08/29 12:03:54;;;;;;;8.2;6.3;;;;;;;33.38;34.21777;1004.572;;;;
2019/08/29 12:06:19;;;;;;;8.6;6.3;;;;;;;32.88;33.99902;1004.501;;;;
2019/08/29 12:08:44;;;;;;;7.9;6.2;;;;;;;33.02;33.79199;1004.501;;;;
2019/08/29 12:11:14;;;;;;;7.3;6.6;;;;;;;33.31;33.63379;1004.506;;;;
2019/08/29 12:13:35;;;;;;;9.9;6.2;;;;;;;32.86;34.87598;1004.479;;;;
2019/08/29 12:16:00;;;;;;;8;6.2;;;;;;;32.91;35.25293;1004.433;;;;
2019/08/29 12:18:25;;;;;;;8.5;6.4;;;;;;;33.24;35.02539;1004.42;;;;
2019/08/29 12:20:50;;;;;;;7.6;6.2;;;;;;;32.8;35.52148;1004.46;;;;
2019/08/29 12:23:16;;;;;;;8.4;6.4;;;;;;;32.74;35.66113;1004.458;;;;
2019/08/29 12:25:41;;;;;;;8.5;6.9;;;;;;;32.79;35.61719;1004.601;;;;
2019/08/29 12:28:06;;;;;;;10.5;6.7;;;;;;;32.5;35.71484;1004.559;;;;
2019/08/29 12:30:31;;;;;;;8.8;6.9;;;;;;;32.57;35.67285;1004.504;;;;
2019/08/29 12:32:56;;;;;;;8.5;6.9;;;;;;;32.67;35.67969;1004.44;;;;
2019/08/29 12:35:21;;;;;;;9;6.7;;;;;;;32.8;35.84668;1004.421;;;;
2019/08/29 12:37:47;;;;;;;11.4;7.1;;;;;;;32.7;36.04297;1004.467;;;;
2019/08/29 12:40:12;;;;;;;11.5;7.7;;;;;;;32.91;35.57813;1004.436;;;;
2019/08/29 12:42:37;;;;;;;7.4;6.6;;;;;;;32.94;35.5918;1004.411;;;;
2019/08/29 12:45:02;;;;;;;7.7;6.9;;;;;;;32.73;35.57617;1004.437;;;;
2019/08/29 12:47:27;;;;;;;8.6;7;;;;;;;32.82;35.30664;1004.419;;;;
2019/08/29 12:49:52;;;;;;;9.7;6.7;;;;;;;32.8;35.56934;1004.402;;;;
2019/08/29 12:52:17;;;;;;;8.8;6.8;;;;;;;32.98;35.51172;1004.388;;;;
2019/08/29 12:54:42;;;;;;;8.1;6.9;;;;;;;33.18;34.78027;1004.4;;;;
2019/08/29 12:57:08;;;;;;;8.1;6.7;;;;;;;32.91;35.08496;1004.334;;;;
2019/08/29 12:59:33;;;;;;;9.4;6.7;;;;;;;32.92;35.21777;1004.301;;;;
2019/08/29 13:01:58;;;;;;;10;7;;;;;;;33.07;35.06055;1004.292;;;;
2019/08/29 13:04:23;;;;;;;7.3;6.6;;;;;;;32.92;35.94043;1004.268;;;;
2019/08/29 13:06:48;;;;;;;8;6.8;;;;;;;33.04;36.0459;1004.223;;;;
2019/08/29 13:09:13;;;;;;;9.5;6.7;;;;;;;33.18;36.19043;1004.203;;;;
2019/08/29 13:11:38;;;;;;;10.8;6.8;;;;;;;32.91;36.51758;1004.157;;;;
2019/08/29 13:14:03;;;;;;;8;6.5;;;;;;;33.2;36.33594;1003.973;;;;
2019/08/29 13:16:28;;;;;;;8.1;7;;;;;;;32.98;36.31836;1004.066;;;;
2019/08/29 13:18:54;;;;;;;8.8;6.8;;;;;;;33.18;35.31055;1003.96;;;;
2019/08/29 13:21:19;;;;;;;11;6.4;;;;;;;33.03;35.9248;1004.053;;;;
2019/08/29 13:23:44;;;;;;;10.6;6.8;;;;;;;33.23;36.18164;1004.052;;;;
2019/08/29 13:26:09;;;;;;;14.4;8.5;;;;;;;33.28;36.19824;1004.115;;;;
2019/08/29 13:28:34;;;;;;;9;7.1;;;;;;;33.42;35.62988;1004.15;;;;
2019/08/29 13:30:59;;;;;;;10.6;7;;;;;;;33.44;35.77637;1004.123;;;;
2019/08/29 13:33:25;;;;;;;9.1;7;;;;;;;33.3;35.89844;1004.082;;;;
2019/08/29 13:35:50;;;;;;;10.1;7.3;;;;;;;33.18;36.1543;1004.052;;;;
2019/08/29 13:38:15;;;;;;;8.6;7;;;;;;;33.01;36.66992;1004.016;;;;
2019/08/29 13:40:40;;;;;;;9.8;6.8;;;;;;;33.03;36.39453;1004.102;;;;
2019/08/29 13:43:05;;;;;;;10.4;6.9;;;;;;;33.12;36.52148;1004.139;;;;
2019/08/29 13:45:30;;;;;;;10.3;6.9;;;;;;;33.05;36.17969;1004.112;;;;
2019/08/29 13:47:55;;;;;;;11.1;6.8;;;;;;;33.15;35.34473;1004.15;;;;
2019/08/29 13:50:20;;;;;;;7.5;6.5;;;;;;;33.3;35.51172;1004.109;;;;
2019/08/29 13:52:46;;;;;;;9.5;6.6;;;;;;;33.53;35.33691;1004.154;;;;
2019/08/29 13:55:11;;;;;;;9.8;6.6;;;;;;;33.65;33.9834;1004.186;;;;
2019/08/29 13:57:36;;;;;;;9.4;6.6;;;;;;;33.4;33.72461;1004.101;;;;
2019/08/29 14:00:02;;;;;;;7.8;6.3;;;;;;;33.66;33.16504;1004.075;;;;